sensor_id;sensor_type;location;lat;lon;timestamp;temperature;humidity
36352;DHT22;22382;44.768;17.206;2023-07-31T00:02:16;19.40;99.90
36352;DHT22;22382;44.768;17.206;2023-07-31T00:04:43;19.40;99.90
36352;DHT22;22382;44.768;17.206;2023-07-31T00:07:10;19.30;99.90
36352;DHT22;22382;44.768;17.206;2023-07-31T00:09:37;19.30;99.90
36352;DHT22;22382;44.768;17.206;2023-07-31T00:12:04;19.30;99.90
36352;DHT22;22382;44.768;17.206;2023-07-31T00:14:31;19.30;99.90
36352;DHT22;22382;44.768;17.206;2023-07-31T00:17:00;19.20;99.90
36352;DHT22;22382;44.768;17.206;2023-07-31T00:19:28;19.20;99.90
36352;DHT22;22382;44.768;17.206;2023-07-31T00:21:55;19.20;99.90
36352;DHT22;22382;44.768;17.206;2023-07-31T00:24:22;19.20;99.90
36352;DHT22;22382;44.768;17.206;2023-07-31T00:26:49;19.20;99.90
36352;DHT22;22382;44.768;17.206;2023-07-31T00:29:16;19.20;99.90
36352;DHT22;22382;44.768;17.206;2023-07-31T00:31:43;19.20;99.90
36352;DHT22;22382;44.768;17.206;2023-07-31T00:34:10;19.20;99.90
36352;DHT22;22382;44.768;17.206;2023-07-31T00:36:37;19.30;99.90
36352;DHT22;22382;44.768;17.206;2023-07-31T00:39:05;19.20;99.90
36352;DHT22;22382;44.768;17.206;2023-07-31T00:41:32;19.20;99.90
36352;DHT22;22382;44.768;17.206;2023-07-31T00:43:59;19.20;99.90
36352;DHT22;22382;44.768;17.206;2023-07-31T00:46:26;19.20;99.90
36352;DHT22;22382;44.768;17.206;2023-07-31T00:48:54;19.20;99.90
36352;DHT22;22382;44.768;17.206;2023-07-31T00:51:21;19.10;99.90
36352;DHT22;22382;44.768;17.206;2023-07-31T00:53:48;19.10;99.90
36352;DHT22;22382;44.768;17.206;2023-07-31T00:56:15;19.10;99.90
36352;DHT22;22382;44.768;17.206;2023-07-31T00:58:43;19.00;99.90
36352;DHT22;22382;44.768;17.206;2023-07-31T01:01:10;19.00;99.90
36352;DHT22;22382;44.768;17.206;2023-07-31T01:03:37;19.00;99.90
36352;DHT22;22382;44.768;17.206;2023-07-31T01:11:13;19.00;99.90
36352;DHT22;22382;44.768;17.206;2023-07-31T01:13:42;19.00;99.90
36352;DHT22;22382;44.768;17.206;2023-07-31T01:16:09;19.00;99.90
36352;DHT22;22382;44.768;17.206;2023-07-31T01:18:36;19.00;99.90
36352;DHT22;22382;44.768;17.206;2023-07-31T01:21:08;19.00;99.90
36352;DHT22;22382;44.768;17.206;2023-07-31T01:26:36;19.00;99.90
36352;DHT22;22382;44.768;17.206;2023-07-31T01:29:10;18.90;99.90
36352;DHT22;22382;44.768;17.206;2023-07-31T01:31:39;18.90;99.90
36352;DHT22;22382;44.768;17.206;2023-07-31T01:34:06;18.90;99.90
36352;DHT22;22382;44.768;17.206;2023-07-31T01:36:35;18.90;99.90
36352;DHT22;22382;44.768;17.206;2023-07-31T01:39:03;18.90;99.90
36352;DHT22;22382;44.768;17.206;2023-07-31T01:41:30;18.80;99.90
36352;DHT22;22382;44.768;17.206;2023-07-31T01:43:58;18.70;99.90
36352;DHT22;22382;44.768;17.206;2023-07-31T01:46:26;18.70;99.90
36352;DHT22;22382;44.768;17.206;2023-07-31T01:48:54;18.70;99.90
36352;DHT22;22382;44.768;17.206;2023-07-31T01:51:21;18.60;99.90
36352;DHT22;22382;44.768;17.206;2023-07-31T01:53:48;18.60;99.90
36352;DHT22;22382;44.768;17.206;2023-07-31T01:56:15;18.60;99.90
36352;DHT22;22382;44.768;17.206;2023-07-31T01:58:43;18.60;99.90
36352;DHT22;22382;44.768;17.206;2023-07-31T02:01:09;18.50;99.90
36352;DHT22;22382;44.768;17.206;2023-07-31T02:03:37;18.50;99.90
36352;DHT22;22382;44.768;17.206;2023-07-31T02:06:04;18.50;99.90
36352;DHT22;22382;44.768;17.206;2023-07-31T02:08:31;18.50;99.90
36352;DHT22;22382;44.768;17.206;2023-07-31T02:10:58;18.40;99.90
36352;DHT22;22382;44.768;17.206;2023-07-31T02:13:25;18.40;99.90
36352;DHT22;22382;44.768;17.206;2023-07-31T02:15:52;18.40;99.90
36352;DHT22;22382;44.768;17.206;2023-07-31T02:18:19;18.30;99.90
36352;DHT22;22382;44.768;17.206;2023-07-31T02:20:50;18.30;99.90
36352;DHT22;22382;44.768;17.206;2023-07-31T02:23:18;18.30;99.90
36352;DHT22;22382;44.768;17.206;2023-07-31T02:25:45;18.30;99.90
36352;DHT22;22382;44.768;17.206;2023-07-31T02:28:12;18.30;99.90
36352;DHT22;22382;44.768;17.206;2023-07-31T02:30:39;18.30;99.90
36352;DHT22;22382;44.768;17.206;2023-07-31T02:33:06;18.30;99.90
36352;DHT22;22382;44.768;17.206;2023-07-31T02:35:33;18.30;99.90
36352;DHT22;22382;44.768;17.206;2023-07-31T02:38:00;18.30;99.90
36352;DHT22;22382;44.768;17.206;2023-07-31T02:40:28;18.20;99.90
36352;DHT22;22382;44.768;17.206;2023-07-31T02:42:55;18.20;99.90
36352;DHT22;22382;44.768;17.206;2023-07-31T02:45:22;18.20;99.90
36352;DHT22;22382;44.768;17.206;2023-07-31T02:47:49;18.20;99.90
36352;DHT22;22382;44.768;17.206;2023-07-31T02:50:17;18.10;99.90
36352;DHT22;22382;44.768;17.206;2023-07-31T02:52:44;18.10;99.90
36352;DHT22;22382;44.768;17.206;2023-07-31T02:55:11;18.10;99.90
36352;DHT22;22382;44.768;17.206;2023-07-31T02:57:39;18.20;99.90
36352;DHT22;22382;44.768;17.206;2023-07-31T03:00:06;18.20;99.90
36352;DHT22;22382;44.768;17.206;2023-07-31T03:02:33;18.20;99.90
36352;DHT22;22382;44.768;17.206;2023-07-31T03:05:01;18.20;99.90
36352;DHT22;22382;44.768;17.206;2023-07-31T03:07:28;18.20;99.90
36352;DHT22;22382;44.768;17.206;2023-07-31T03:09:57;18.10;99.90
36352;DHT22;22382;44.768;17.206;2023-07-31T03:12:24;18.10;99.90
36352;DHT22;22382;44.768;17.206;2023-07-31T03:14:51;18.10;99.90
36352;DHT22;22382;44.768;17.206;2023-07-31T03:17:18;18.10;99.90
36352;DHT22;22382;44.768;17.206;2023-07-31T03:19:45;18.10;99.90
36352;DHT22;22382;44.768;17.206;2023-07-31T03:22:12;18.10;99.90
36352;DHT22;22382;44.768;17.206;2023-07-31T03:24:40;18.10;99.90
36352;DHT22;22382;44.768;17.206;2023-07-31T03:27:07;18.10;99.90
36352;DHT22;22382;44.768;17.206;2023-07-31T03:29:35;18.10;99.90
36352;DHT22;22382;44.768;17.206;2023-07-31T03:32:02;18.10;99.90
36352;DHT22;22382;44.768;17.206;2023-07-31T03:34:30;18.10;99.90
36352;DHT22;22382;44.768;17.206;2023-07-31T03:36:58;18.10;99.90
36352;DHT22;22382;44.768;17.206;2023-07-31T03:39:26;18.10;99.90
36352;DHT22;22382;44.768;17.206;2023-07-31T03:41:53;18.20;99.90
36352;DHT22;22382;44.768;17.206;2023-07-31T03:44:20;18.20;99.90
36352;DHT22;22382;44.768;17.206;2023-07-31T03:46:47;18.20;99.90
36352;DHT22;22382;44.768;17.206;2023-07-31T03:49:15;18.20;99.90
36352;DHT22;22382;44.768;17.206;2023-07-31T03:51:42;18.20;99.90
36352;DHT22;22382;44.768;17.206;2023-07-31T03:54:09;18.20;99.90
36352;DHT22;22382;44.768;17.206;2023-07-31T03:56:36;18.30;99.90
36352;DHT22;22382;44.768;17.206;2023-07-31T03:59:05;18.40;99.90
36352;DHT22;22382;44.768;17.206;2023-07-31T04:01:33;18.50;99.90
36352;DHT22;22382;44.768;17.206;2023-07-31T04:04:00;18.60;99.90
36352;DHT22;22382;44.768;17.206;2023-07-31T04:06:27;18.70;99.90
36352;DHT22;22382;44.768;17.206;2023-07-31T04:08:54;18.80;99.90
36352;DHT22;22382;44.768;17.206;2023-07-31T04:11:21;18.80;99.90
36352;DHT22;22382;44.768;17.206;2023-07-31T04:13:49;18.80;99.90
36352;DHT22;22382;44.768;17.206;2023-07-31T04:16:16;18.90;99.90
36352;DHT22;22382;44.768;17.206;2023-07-31T04:18:43;18.80;99.90
36352;DHT22;22382;44.768;17.206;2023-07-31T04:21:10;18.90;99.90
36352;DHT22;22382;44.768;17.206;2023-07-31T04:23:37;19.00;99.90
36352;DHT22;22382;44.768;17.206;2023-07-31T04:26:04;19.30;99.90
36352;DHT22;22382;44.768;17.206;2023-07-31T04:28:32;19.60;99.90
36352;DHT22;22382;44.768;17.206;2023-07-31T04:30:59;20.00;99.90
36352;DHT22;22382;44.768;17.206;2023-07-31T04:33:26;20.40;99.90
36352;DHT22;22382;44.768;17.206;2023-07-31T04:35:53;20.50;99.90
36352;DHT22;22382;44.768;17.206;2023-07-31T04:38:22;20.80;99.90
36352;DHT22;22382;44.768;17.206;2023-07-31T04:40:49;21.10;99.90
36352;DHT22;22382;44.768;17.206;2023-07-31T04:43:17;21.30;99.90
36352;DHT22;22382;44.768;17.206;2023-07-31T04:45:47;21.40;99.90
36352;DHT22;22382;44.768;17.206;2023-07-31T04:48:17;21.70;99.90
36352;DHT22;22382;44.768;17.206;2023-07-31T04:50:44;21.80;99.90
36352;DHT22;22382;44.768;17.206;2023-07-31T04:53:11;22.10;99.90
36352;DHT22;22382;44.768;17.206;2023-07-31T04:55:38;22.00;99.90
36352;DHT22;22382;44.768;17.206;2023-07-31T04:58:05;22.00;99.90
36352;DHT22;22382;44.768;17.206;2023-07-31T05:00:33;21.90;99.90
36352;DHT22;22382;44.768;17.206;2023-07-31T05:03:00;21.90;99.90
36352;DHT22;22382;44.768;17.206;2023-07-31T05:05:27;21.90;99.90
36352;DHT22;22382;44.768;17.206;2023-07-31T05:07:54;21.80;99.90
36352;DHT22;22382;44.768;17.206;2023-07-31T05:10:21;21.70;99.90
36352;DHT22;22382;44.768;17.206;2023-07-31T05:12:48;21.70;99.90
36352;DHT22;22382;44.768;17.206;2023-07-31T05:15:16;21.70;99.90
36352;DHT22;22382;44.768;17.206;2023-07-31T05:17:43;21.80;99.90
36352;DHT22;22382;44.768;17.206;2023-07-31T05:20:10;21.80;99.90
36352;DHT22;22382;44.768;17.206;2023-07-31T05:22:37;22.00;99.90
36352;DHT22;22382;44.768;17.206;2023-07-31T05:25:05;22.20;99.90
36352;DHT22;22382;44.768;17.206;2023-07-31T05:27:32;22.60;99.90
36352;DHT22;22382;44.768;17.206;2023-07-31T05:29:59;22.60;99.90
36352;DHT22;22382;44.768;17.206;2023-07-31T05:32:26;22.60;99.90
36352;DHT22;22382;44.768;17.206;2023-07-31T05:34:53;22.50;99.90
36352;DHT22;22382;44.768;17.206;2023-07-31T05:37:21;22.50;99.90
36352;DHT22;22382;44.768;17.206;2023-07-31T05:39:48;22.30;99.90
36352;DHT22;22382;44.768;17.206;2023-07-31T05:42:15;22.20;99.90
36352;DHT22;22382;44.768;17.206;2023-07-31T05:44:42;22.30;99.90
36352;DHT22;22382;44.768;17.206;2023-07-31T05:47:10;22.20;99.90
36352;DHT22;22382;44.768;17.206;2023-07-31T05:49:37;22.10;99.90
36352;DHT22;22382;44.768;17.206;2023-07-31T05:52:04;22.00;99.90
36352;DHT22;22382;44.768;17.206;2023-07-31T05:54:31;22.10;99.90
36352;DHT22;22382;44.768;17.206;2023-07-31T05:56:58;21.90;99.90
36352;DHT22;22382;44.768;17.206;2023-07-31T05:59:25;21.80;99.90
36352;DHT22;22382;44.768;17.206;2023-07-31T06:01:52;21.70;99.90
36352;DHT22;22382;44.768;17.206;2023-07-31T06:04:19;21.50;99.90
36352;DHT22;22382;44.768;17.206;2023-07-31T06:06:50;21.30;99.90
36352;DHT22;22382;44.768;17.206;2023-07-31T06:09:17;21.30;99.90
36352;DHT22;22382;44.768;17.206;2023-07-31T06:11:44;21.60;99.90
36352;DHT22;22382;44.768;17.206;2023-07-31T06:14:11;21.80;99.90
36352;DHT22;22382;44.768;17.206;2023-07-31T06:16:39;22.20;99.90
36352;DHT22;22382;44.768;17.206;2023-07-31T06:19:06;22.60;99.90
36352;DHT22;22382;44.768;17.206;2023-07-31T06:21:33;23.00;99.90
36352;DHT22;22382;44.768;17.206;2023-07-31T06:24:01;23.20;99.90
36352;DHT22;22382;44.768;17.206;2023-07-31T06:26:28;23.40;99.90
36352;DHT22;22382;44.768;17.206;2023-07-31T06:28:55;23.70;99.90
36352;DHT22;22382;44.768;17.206;2023-07-31T06:31:22;24.10;99.90
36352;DHT22;22382;44.768;17.206;2023-07-31T06:33:51;24.10;99.90
36352;DHT22;22382;44.768;17.206;2023-07-31T06:36:18;23.70;99.90
36352;DHT22;22382;44.768;17.206;2023-07-31T06:38:45;23.70;99.90
36352;DHT22;22382;44.768;17.206;2023-07-31T06:41:12;23.80;99.90
36352;DHT22;22382;44.768;17.206;2023-07-31T06:43:39;24.00;99.90
36352;DHT22;22382;44.768;17.206;2023-07-31T06:46:06;24.20;99.90
36352;DHT22;22382;44.768;17.206;2023-07-31T06:48:34;24.30;99.90
36352;DHT22;22382;44.768;17.206;2023-07-31T06:51:01;24.50;99.90
36352;DHT22;22382;44.768;17.206;2023-07-31T06:53:28;24.60;99.90
36352;DHT22;22382;44.768;17.206;2023-07-31T06:55:55;24.60;99.90
36352;DHT22;22382;44.768;17.206;2023-07-31T06:58:22;24.70;99.90
36352;DHT22;22382;44.768;17.206;2023-07-31T07:00:49;24.80;99.90
36352;DHT22;22382;44.768;17.206;2023-07-31T07:03:20;24.70;99.90
36352;DHT22;22382;44.768;17.206;2023-07-31T07:05:47;24.70;99.90
36352;DHT22;22382;44.768;17.206;2023-07-31T07:08:14;24.80;99.90
36352;DHT22;22382;44.768;17.206;2023-07-31T07:10:41;25.00;99.90
36352;DHT22;22382;44.768;17.206;2023-07-31T07:13:08;25.30;99.90
36352;DHT22;22382;44.768;17.206;2023-07-31T07:15:36;25.40;99.90
36352;DHT22;22382;44.768;17.206;2023-07-31T07:18:03;25.50;99.90
36352;DHT22;22382;44.768;17.206;2023-07-31T07:20:30;25.70;99.90
36352;DHT22;22382;44.768;17.206;2023-07-31T07:22:57;25.90;99.90
36352;DHT22;22382;44.768;17.206;2023-07-31T07:25:24;26.10;99.90
36352;DHT22;22382;44.768;17.206;2023-07-31T07:27:51;25.90;99.90
36352;DHT22;22382;44.768;17.206;2023-07-31T07:30:19;25.60;99.90
36352;DHT22;22382;44.768;17.206;2023-07-31T07:32:46;25.80;99.90
36352;DHT22;22382;44.768;17.206;2023-07-31T07:35:13;25.60;99.90
36352;DHT22;22382;44.768;17.206;2023-07-31T07:37:40;25.80;99.90
36352;DHT22;22382;44.768;17.206;2023-07-31T07:40:08;25.70;99.90
36352;DHT22;22382;44.768;17.206;2023-07-31T07:42:35;26.00;99.90
36352;DHT22;22382;44.768;17.206;2023-07-31T07:45:02;25.80;99.90
36352;DHT22;22382;44.768;17.206;2023-07-31T07:47:29;26.00;99.90
36352;DHT22;22382;44.768;17.206;2023-07-31T07:49:56;26.10;99.90
36352;DHT22;22382;44.768;17.206;2023-07-31T07:52:23;25.90;99.90
36352;DHT22;22382;44.768;17.206;2023-07-31T07:54:50;26.10;99.90
36352;DHT22;22382;44.768;17.206;2023-07-31T07:57:17;26.40;99.90
36352;DHT22;22382;44.768;17.206;2023-07-31T07:59:45;26.40;99.90
36352;DHT22;22382;44.768;17.206;2023-07-31T08:02:12;26.60;99.90
36352;DHT22;22382;44.768;17.206;2023-07-31T08:04:39;26.70;99.90
36352;DHT22;22382;44.768;17.206;2023-07-31T08:07:06;26.90;99.90
36352;DHT22;22382;44.768;17.206;2023-07-31T08:09:33;26.80;99.90
36352;DHT22;22382;44.768;17.206;2023-07-31T08:12:00;26.90;99.90
36352;DHT22;22382;44.768;17.206;2023-07-31T08:14:30;27.00;97.90
36352;DHT22;22382;44.768;17.206;2023-07-31T08:16:59;27.00;97.10
36352;DHT22;22382;44.768;17.206;2023-07-31T08:19:26;27.10;97.40
36352;DHT22;22382;44.768;17.206;2023-07-31T08:21:54;27.30;95.60
36352;DHT22;22382;44.768;17.206;2023-07-31T08:24:24;27.50;96.60
36352;DHT22;22382;44.768;17.206;2023-07-31T08:26:51;27.60;96.40
36352;DHT22;22382;44.768;17.206;2023-07-31T08:29:18;27.90;96.00
36352;DHT22;22382;44.768;17.206;2023-07-31T08:31:45;28.10;93.40
36352;DHT22;22382;44.768;17.206;2023-07-31T08:34:12;28.30;93.10
36352;DHT22;22382;44.768;17.206;2023-07-31T08:36:39;27.80;93.80
36352;DHT22;22382;44.768;17.206;2023-07-31T08:39:07;27.70;93.10
36352;DHT22;22382;44.768;17.206;2023-07-31T08:41:40;27.80;93.60
36352;DHT22;22382;44.768;17.206;2023-07-31T08:44:07;27.80;94.10
36352;DHT22;22382;44.768;17.206;2023-07-31T08:46:34;27.80;92.50
36352;DHT22;22382;44.768;17.206;2023-07-31T08:49:04;27.20;92.70
36352;DHT22;22382;44.768;17.206;2023-07-31T08:51:33;27.20;93.60
36352;DHT22;22382;44.768;17.206;2023-07-31T08:54:00;27.40;93.00
36352;DHT22;22382;44.768;17.206;2023-07-31T08:56:27;27.50;92.10
36352;DHT22;22382;44.768;17.206;2023-07-31T08:58:55;27.40;93.10
36352;DHT22;22382;44.768;17.206;2023-07-31T09:01:22;27.40;93.90
36352;DHT22;22382;44.768;17.206;2023-07-31T09:03:50;27.60;94.10
36352;DHT22;22382;44.768;17.206;2023-07-31T09:06:18;27.70;92.70
36352;DHT22;22382;44.768;17.206;2023-07-31T09:08:46;27.30;92.30
36352;DHT22;22382;44.768;17.206;2023-07-31T09:11:14;27.50;93.00
36352;DHT22;22382;44.768;17.206;2023-07-31T09:13:41;27.60;92.70
36352;DHT22;22382;44.768;17.206;2023-07-31T09:16:08;27.70;93.80
36352;DHT22;22382;44.768;17.206;2023-07-31T09:18:53;27.80;92.20
36352;DHT22;22382;44.768;17.206;2023-07-31T09:21:20;28.00;92.60
36352;DHT22;22382;44.768;17.206;2023-07-31T09:23:48;28.00;92.40
36352;DHT22;22382;44.768;17.206;2023-07-31T09:29:18;27.70;91.60
36352;DHT22;22382;44.768;17.206;2023-07-31T09:31:45;27.60;90.50
36352;DHT22;22382;44.768;17.206;2023-07-31T09:34:13;27.70;91.60
36352;DHT22;22382;44.768;17.206;2023-07-31T09:36:43;27.90;91.90
36352;DHT22;22382;44.768;17.206;2023-07-31T09:39:11;28.00;90.60
36352;DHT22;22382;44.768;17.206;2023-07-31T09:41:39;28.20;90.80
36352;DHT22;22382;44.768;17.206;2023-07-31T09:44:06;28.40;89.10
36352;DHT22;22382;44.768;17.206;2023-07-31T09:46:37;28.50;90.20
36352;DHT22;22382;44.768;17.206;2023-07-31T09:49:11;27.70;89.00
36352;DHT22;22382;44.768;17.206;2023-07-31T09:51:40;27.90;90.00
36352;DHT22;22382;44.768;17.206;2023-07-31T09:56:42;28.40;88.10
36352;DHT22;22382;44.768;17.206;2023-07-31T09:59:17;28.50;87.50
36352;DHT22;22382;44.768;17.206;2023-07-31T10:01:48;28.30;89.50
36352;DHT22;22382;44.768;17.206;2023-07-31T10:04:16;28.40;88.90
36352;DHT22;22382;44.768;17.206;2023-07-31T10:06:46;28.50;89.10
36352;DHT22;22382;44.768;17.206;2023-07-31T10:09:15;28.50;86.20
36352;DHT22;22382;44.768;17.206;2023-07-31T10:11:53;28.40;81.00
36352;DHT22;22382;44.768;17.206;2023-07-31T10:14:23;28.00;81.60
36352;DHT22;22382;44.768;17.206;2023-07-31T10:16:50;27.80;83.50
36352;DHT22;22382;44.768;17.206;2023-07-31T10:19:18;27.50;86.00
36352;DHT22;22382;44.768;17.206;2023-07-31T10:21:46;27.80;85.30
36352;DHT22;22382;44.768;17.206;2023-07-31T10:24:15;27.70;82.80
36352;DHT22;22382;44.768;17.206;2023-07-31T10:26:43;27.70;82.80
36352;DHT22;22382;44.768;17.206;2023-07-31T10:29:11;27.40;83.20
36352;DHT22;22382;44.768;17.206;2023-07-31T10:31:39;27.70;81.00
36352;DHT22;22382;44.768;17.206;2023-07-31T10:34:06;27.80;83.10
36352;DHT22;22382;44.768;17.206;2023-07-31T10:36:34;27.80;82.20
36352;DHT22;22382;44.768;17.206;2023-07-31T10:39:02;27.70;81.60
36352;DHT22;22382;44.768;17.206;2023-07-31T10:41:31;27.80;82.50
36352;DHT22;22382;44.768;17.206;2023-07-31T10:43:59;27.90;81.90
36352;DHT22;22382;44.768;17.206;2023-07-31T10:46:29;28.10;82.40
36352;DHT22;22382;44.768;17.206;2023-07-31T10:49:02;28.10;83.80
36352;DHT22;22382;44.768;17.206;2023-07-31T10:51:33;28.00;84.10
36352;DHT22;22382;44.768;17.206;2023-07-31T10:54:11;27.70;84.30
36352;DHT22;22382;44.768;17.206;2023-07-31T10:56:38;27.50;84.10
36352;DHT22;22382;44.768;17.206;2023-07-31T10:59:07;27.40;83.80
36352;DHT22;22382;44.768;17.206;2023-07-31T11:04:34;27.40;82.20
36352;DHT22;22382;44.768;17.206;2023-07-31T11:07:02;27.40;82.50
36352;DHT22;22382;44.768;17.206;2023-07-31T11:09:30;27.60;81.20
36352;DHT22;22382;44.768;17.206;2023-07-31T11:11:59;27.60;80.70
36352;DHT22;22382;44.768;17.206;2023-07-31T11:14:26;27.40;80.00
36352;DHT22;22382;44.768;17.206;2023-07-31T11:16:53;27.60;79.30
36352;DHT22;22382;44.768;17.206;2023-07-31T11:19:23;27.80;80.90
36352;DHT22;22382;44.768;17.206;2023-07-31T11:21:54;27.60;79.90
36352;DHT22;22382;44.768;17.206;2023-07-31T11:24:21;27.70;81.10
36352;DHT22;22382;44.768;17.206;2023-07-31T11:26:49;27.80;80.10
36352;DHT22;22382;44.768;17.206;2023-07-31T11:29:17;27.80;82.00
36352;DHT22;22382;44.768;17.206;2023-07-31T11:31:44;27.90;80.00
36352;DHT22;22382;44.768;17.206;2023-07-31T11:34:11;27.80;80.70
36352;DHT22;22382;44.768;17.206;2023-07-31T11:36:39;27.80;79.50
36352;DHT22;22382;44.768;17.206;2023-07-31T11:39:09;27.80;80.60
36352;DHT22;22382;44.768;17.206;2023-07-31T11:41:40;27.90;80.40
36352;DHT22;22382;44.768;17.206;2023-07-31T11:44:07;28.00;78.50
36352;DHT22;22382;44.768;17.206;2023-07-31T11:46:53;28.10;78.50
36352;DHT22;22382;44.768;17.206;2023-07-31T11:49:23;27.90;78.40
36352;DHT22;22382;44.768;17.206;2023-07-31T11:51:50;28.00;77.00
36352;DHT22;22382;44.768;17.206;2023-07-31T11:54:18;28.10;80.30
36352;DHT22;22382;44.768;17.206;2023-07-31T11:56:45;28.20;79.50
36352;DHT22;22382;44.768;17.206;2023-07-31T11:59:12;28.50;77.10
36352;DHT22;22382;44.768;17.206;2023-07-31T12:01:40;28.80;78.00
36352;DHT22;22382;44.768;17.206;2023-07-31T12:04:07;28.30;76.40
36352;DHT22;22382;44.768;17.206;2023-07-31T12:06:35;28.00;78.30
36352;DHT22;22382;44.768;17.206;2023-07-31T12:09:03;28.00;80.30
36352;DHT22;22382;44.768;17.206;2023-07-31T12:11:30;28.30;78.30
36352;DHT22;22382;44.768;17.206;2023-07-31T12:13:57;28.70;79.00
36352;DHT22;22382;44.768;17.206;2023-07-31T12:16:26;28.30;78.00
36352;DHT22;22382;44.768;17.206;2023-07-31T12:18:53;28.10;79.30
36352;DHT22;22382;44.768;17.206;2023-07-31T12:21:21;28.00;78.40
36352;DHT22;22382;44.768;17.206;2023-07-31T12:23:48;28.20;78.10
36352;DHT22;22382;44.768;17.206;2023-07-31T12:26:15;28.40;77.20
36352;DHT22;22382;44.768;17.206;2023-07-31T12:28:44;28.60;77.10
36352;DHT22;22382;44.768;17.206;2023-07-31T12:31:21;28.90;76.60
36352;DHT22;22382;44.768;17.206;2023-07-31T12:33:49;28.60;76.50
36352;DHT22;22382;44.768;17.206;2023-07-31T12:36:17;28.30;75.20
36352;DHT22;22382;44.768;17.206;2023-07-31T12:38:45;28.30;75.80
36352;DHT22;22382;44.768;17.206;2023-07-31T12:41:12;28.50;76.60
36352;DHT22;22382;44.768;17.206;2023-07-31T12:43:40;28.80;75.10
36352;DHT22;22382;44.768;17.206;2023-07-31T12:46:07;29.10;75.20
36352;DHT22;22382;44.768;17.206;2023-07-31T12:48:35;28.90;75.80
36352;DHT22;22382;44.768;17.206;2023-07-31T12:51:02;29.20;75.60
36352;DHT22;22382;44.768;17.206;2023-07-31T12:53:29;29.20;74.60
36352;DHT22;22382;44.768;17.206;2023-07-31T12:55:56;29.50;74.10
36352;DHT22;22382;44.768;17.206;2023-07-31T12:58:24;29.40;74.80
36352;DHT22;22382;44.768;17.206;2023-07-31T13:00:51;29.40;75.30
36352;DHT22;22382;44.768;17.206;2023-07-31T13:03:18;29.10;76.20
36352;DHT22;22382;44.768;17.206;2023-07-31T13:05:45;29.10;75.30
36352;DHT22;22382;44.768;17.206;2023-07-31T13:08:12;29.30;77.00
36352;DHT22;22382;44.768;17.206;2023-07-31T13:10:42;29.60;75.50
36352;DHT22;22382;44.768;17.206;2023-07-31T13:13:10;29.60;75.50
36352;DHT22;22382;44.768;17.206;2023-07-31T13:15:37;29.70;75.00
36352;DHT22;22382;44.768;17.206;2023-07-31T13:18:04;29.40;73.80
36352;DHT22;22382;44.768;17.206;2023-07-31T13:20:31;29.20;73.90
36352;DHT22;22382;44.768;17.206;2023-07-31T13:22:58;29.30;73.50
36352;DHT22;22382;44.768;17.206;2023-07-31T13:25:25;29.20;74.10
36352;DHT22;22382;44.768;17.206;2023-07-31T13:27:53;29.10;73.30
36352;DHT22;22382;44.768;17.206;2023-07-31T13:30:20;28.90;73.60
36352;DHT22;22382;44.768;17.206;2023-07-31T13:32:47;29.10;73.50
36352;DHT22;22382;44.768;17.206;2023-07-31T13:35:14;29.40;74.70
36352;DHT22;22382;44.768;17.206;2023-07-31T13:37:41;29.40;75.20
36352;DHT22;22382;44.768;17.206;2023-07-31T13:40:08;29.30;74.90
36352;DHT22;22382;44.768;17.206;2023-07-31T13:42:35;29.20;76.50
36352;DHT22;22382;44.768;17.206;2023-07-31T13:45:02;29.30;76.50
36352;DHT22;22382;44.768;17.206;2023-07-31T13:47:33;28.80;77.30
36352;DHT22;22382;44.768;17.206;2023-07-31T13:50:01;28.80;77.40
36352;DHT22;22382;44.768;17.206;2023-07-31T13:52:29;29.00;77.50
36352;DHT22;22382;44.768;17.206;2023-07-31T13:54:56;28.90;77.30
36352;DHT22;22382;44.768;17.206;2023-07-31T13:57:23;29.00;76.60
36352;DHT22;22382;44.768;17.206;2023-07-31T13:59:50;29.30;76.70
36352;DHT22;22382;44.768;17.206;2023-07-31T14:02:17;29.40;76.80
36352;DHT22;22382;44.768;17.206;2023-07-31T14:04:44;29.00;75.80
36352;DHT22;22382;44.768;17.206;2023-07-31T14:07:11;29.10;74.80
36352;DHT22;22382;44.768;17.206;2023-07-31T14:09:38;29.30;75.30
36352;DHT22;22382;44.768;17.206;2023-07-31T14:12:06;29.20;76.20
36352;DHT22;22382;44.768;17.206;2023-07-31T14:14:33;29.30;75.30
36352;DHT22;22382;44.768;17.206;2023-07-31T14:17:01;29.70;75.60
36352;DHT22;22382;44.768;17.206;2023-07-31T14:19:28;29.70;76.10
36352;DHT22;22382;44.768;17.206;2023-07-31T14:21:58;29.40;75.20
36352;DHT22;22382;44.768;17.206;2023-07-31T14:24:37;29.50;76.30
36352;DHT22;22382;44.768;17.206;2023-07-31T14:27:04;29.50;77.10
36352;DHT22;22382;44.768;17.206;2023-07-31T14:29:31;29.50;77.40
36352;DHT22;22382;44.768;17.206;2023-07-31T14:31:58;29.10;77.40
36352;DHT22;22382;44.768;17.206;2023-07-31T14:34:27;29.40;77.10
36352;DHT22;22382;44.768;17.206;2023-07-31T14:36:54;29.50;77.60
36352;DHT22;22382;44.768;17.206;2023-07-31T14:39:21;29.70;75.40
36352;DHT22;22382;44.768;17.206;2023-07-31T14:41:48;29.70;74.20
36352;DHT22;22382;44.768;17.206;2023-07-31T14:44:15;29.70;74.10
36352;DHT22;22382;44.768;17.206;2023-07-31T14:46:42;29.30;76.20
36352;DHT22;22382;44.768;17.206;2023-07-31T14:49:10;29.00;73.80
36352;DHT22;22382;44.768;17.206;2023-07-31T14:51:37;28.60;75.60
36352;DHT22;22382;44.768;17.206;2023-07-31T14:54:04;28.40;76.40
36352;DHT22;22382;44.768;17.206;2023-07-31T14:56:31;28.80;75.40
36352;DHT22;22382;44.768;17.206;2023-07-31T14:58:58;29.10;76.10
36352;DHT22;22382;44.768;17.206;2023-07-31T15:01:25;29.30;75.00
36352;DHT22;22382;44.768;17.206;2023-07-31T15:03:52;29.90;75.40
36352;DHT22;22382;44.768;17.206;2023-07-31T15:06:19;31.60;74.00
36352;DHT22;22382;44.768;17.206;2023-07-31T15:08:46;33.30;70.60
36352;DHT22;22382;44.768;17.206;2023-07-31T15:11:13;34.30;67.00
36352;DHT22;22382;44.768;17.206;2023-07-31T15:13:43;33.70;66.50
36352;DHT22;22382;44.768;17.206;2023-07-31T15:16:10;33.10;67.20
36352;DHT22;22382;44.768;17.206;2023-07-31T15:18:37;33.10;67.20
36352;DHT22;22382;44.768;17.206;2023-07-31T15:21:04;33.50;66.20
36352;DHT22;22382;44.768;17.206;2023-07-31T15:23:33;33.90;63.60
36352;DHT22;22382;44.768;17.206;2023-07-31T15:26:01;35.60;61.50
36352;DHT22;22382;44.768;17.206;2023-07-31T15:28:28;36.40;59.70
36352;DHT22;22382;44.768;17.206;2023-07-31T15:30:55;37.10;58.10
36352;DHT22;22382;44.768;17.206;2023-07-31T15:33:22;35.50;58.30
36352;DHT22;22382;44.768;17.206;2023-07-31T15:35:50;35.40;58.30